createdAt,value
2017-03-04T15:02:16.995Z,22.1
2017-03-04T15:07:03.260Z,21.7
2017-03-04T15:12:03.599Z,21.7
2017-03-04T15:17:17.951Z,21.2
2017-03-04T15:22:03.349Z,21.2
2017-03-04T15:27:03.250Z,21.2
2017-03-04T15:32:18.091Z,21.6
2017-03-04T15:37:03.442Z,21.5
2017-03-04T15:42:03.135Z,20.9
2017-03-04T15:47:03.332Z,20.2
2017-03-04T15:52:03.177Z,22.2
2017-03-04T15:57:02.847Z,22.2
2017-03-04T16:02:12.776Z,22.1
2017-03-04T16:07:02.850Z,22.1
2017-03-04T16:12:03.083Z,24.6
2017-03-04T16:17:13.554Z,25.6
2017-03-04T16:22:03.572Z,25.6
2017-03-04T16:27:03.501Z,23.9
2017-03-04T16:32:13.414Z,23.2
2017-03-04T16:37:02.656Z,23.2
2017-03-04T16:42:03.141Z,22.0
2017-03-04T16:47:13.135Z,18.5
2017-03-04T16:52:03.166Z,15.2
2017-03-04T16:57:03.308Z,14.3
2017-03-04T17:02:14.125Z,14.2
2017-03-04T17:07:03.194Z,13.2
2017-03-04T17:12:03.374Z,13.2
2017-03-04T17:17:13.927Z,12.2
2017-03-04T17:22:03.342Z,12.1
2017-03-04T17:27:03.317Z,11.9
2017-03-04T17:32:17.100Z,11.4
2017-03-04T17:37:02.827Z,11.3
2017-03-04T17:42:03.440Z,11.2
2017-03-04T17:47:08.574Z,11.0
2017-03-04T17:52:02.956Z,11.0
2017-03-04T17:57:03.339Z,10.9
2017-03-04T18:02:04.816Z,10.6
2017-03-04T18:07:03.488Z,10.4
2017-03-04T18:12:03.470Z,10.4
2017-03-04T18:17:03.245Z,10.1
2017-03-04T18:22:03.199Z,10.0
2017-03-04T18:27:02.943Z,10.0
2017-03-04T18:32:03.287Z,9.9
2017-03-04T18:37:03.031Z,9.8
2017-03-04T18:42:02.737Z,9.7
2017-03-04T18:47:03.903Z,9.6
2017-03-04T18:52:02.604Z,9.5
2017-03-04T18:57:03.173Z,9.4
2017-03-04T19:02:03.241Z,9.3
2017-03-04T19:07:02.901Z,9.3
2017-03-04T19:12:03.158Z,9.2
2017-03-04T19:17:03.533Z,9.2
2017-03-04T19:22:03.188Z,9.3
2017-03-04T19:27:02.916Z,9.3
2017-03-04T19:32:03.551Z,9.3
2017-03-04T19:37:03.143Z,9.2
2017-03-04T19:42:03.008Z,9.0
2017-03-04T19:47:03.526Z,8.6
2017-03-04T19:52:02.622Z,8.4
2017-03-04T19:57:02.916Z,8.2
2017-03-04T20:02:02.624Z,8.2
2017-03-04T20:07:03.387Z,8.1
2017-03-04T20:12:03.120Z,8.0
2017-03-04T20:17:03.380Z,8.0
2017-03-04T20:22:03.629Z,8.1
2017-03-04T20:27:03.270Z,8.2
2017-03-04T20:32:03.434Z,8.1
2017-03-04T20:37:02.909Z,8.0
2017-03-04T20:42:02.821Z,8.1
2017-03-04T20:47:03.016Z,8.1
2017-03-04T20:52:02.897Z,8.1
2017-03-04T20:57:02.930Z,8.1
